Time;durP1;ratioP1;P1;durP2;ratioP2;P2;SDS_P1;SDS_P2;PMS_P1;PMS_P2;Temp;Humidity;BMP_temperature;BMP_pressure;BME280_temperature;BME280_humidity;BME280_pressure;Samples;Min_cycle;Max_cycle;Signal;HPM_P1;HPM_P2
2021/05/13 00:01:06;;;;;;;16.88;7.75;;;13.30;99.90;;;13.92;94.52;100333.47;4981870;28;20203;-71
2021/05/13 00:03:35;;;;;;;17.80;8.75;;;13.30;99.90;;;13.91;94.27;100339.69;4981046;28;20219;-69
2021/05/13 00:06:01;;;;;;;24.58;10.35;;;13.30;99.90;;;13.92;94.62;100337.88;4984004;28;20255;-70
2021/05/13 00:08:28;;;;;;;16.00;7.47;;;13.30;99.90;;;13.90;94.72;100335.34;4980823;28;20195;-70
2021/05/13 00:11:02;;;;;;;17.08;7.55;;;13.30;99.90;;;13.90;94.59;100332.72;4995729;28;20270;-71
2021/05/13 00:13:29;;;;;;;16.05;6.82;;;13.30;99.90;;;13.89;94.54;100331.03;4974225;28;20238;-72
2021/05/13 00:15:56;;;;;;;19.90;7.32;;;13.30;99.90;;;13.86;94.79;100331.22;4983201;28;20215;-71
2021/05/13 00:18:24;;;;;;;21.90;9.30;;;13.30;99.90;;;13.85;94.69;100318.97;4981930;28;20202;-70
2021/05/13 00:20:50;;;;;;;23.45;8.45;;;13.30;99.90;;;13.83;94.50;100320.88;4978812;28;20219;-71
2021/05/13 00:23:17;;;;;;;17.92;7.70;;;13.20;99.90;;;13.78;94.58;100310.59;4978806;28;20215;-71
2021/05/13 00:25:44;;;;;;;19.48;8.57;;;13.20;99.90;;;13.75;94.54;100313.41;4981021;28;20660;-71
2021/05/13 00:28:10;;;;;;;18.65;8.05;;;13.20;99.90;;;13.77;94.48;100308.06;4990892;28;20188;-70
2021/05/13 00:30:37;;;;;;;25.85;10.05;;;13.20;99.90;;;13.77;94.50;100306.28;4976432;28;20250;-70
2021/05/13 00:33:04;;;;;;;20.33;7.78;;;13.20;99.90;;;13.78;94.67;100307.13;4978939;28;20219;-71
2021/05/13 00:35:31;;;;;;;15.73;6.30;;;13.20;99.90;;;13.80;94.50;100303.47;4979206;28;20196;-71
2021/05/13 00:37:57;;;;;;;17.27;6.80;;;13.10;99.90;;;13.82;94.19;100298.97;4983032;28;20218;-70
2021/05/13 00:40:23;;;;;;;17.75;6.45;;;13.10;99.90;;;13.83;94.01;100303.28;4979179;28;20211;-70
2021/05/13 00:42:51;;;;;;;15.05;5.88;;;13.10;99.90;;;13.87;93.92;100296.06;4982089;28;20559;-70
2021/05/13 00:45:19;;;;;;;17.45;5.90;;;13.10;99.90;;;13.89;93.48;100288.94;4993847;28;20192;-69
2021/05/13 00:48:01;;;;;;;15.05;5.05;;;13.10;99.90;;;13.86;93.43;100292.59;4973638;28;20199;-70
2021/05/13 00:50:29;;;;;;;15.48;5.25;;;13.10;99.90;;;13.85;93.06;100290.03;4976092;28;20202;-70
2021/05/13 00:52:56;;;;;;;14.57;5.90;;;13.00;99.90;;;13.83;92.75;100289.31;4975445;28;20227;-70
2021/05/13 00:55:23;;;;;;;15.57;6.43;;;13.00;99.90;;;13.79;92.81;100288.63;4977196;28;20634;-70
2021/05/13 00:57:53;;;;;;;16.20;6.05;;;13.00;99.90;;;13.73;92.80;100282.88;4977324;28;20191;-70
2021/05/13 01:00:36;;;;;;;13.27;6.20;;;13.00;99.90;;;13.70;93.22;100290.94;4976541;28;20223;-69
2021/05/13 01:03:04;;;;;;;15.88;6.70;;;13.00;99.90;;;13.63;93.73;100276.47;4976156;28;20219;-70
2021/05/13 01:05:33;;;;;;;13.35;6.30;;;13.00;99.90;;;13.59;93.96;100269.66;4974983;28;20199;-70
2021/05/13 01:08:02;;;;;;;15.90;6.40;;;13.00;99.90;;;13.51;94.32;100275.34;4988626;28;20196;-70
2021/05/13 01:10:30;;;;;;;16.67;6.63;;;12.90;99.90;;;13.49;94.96;100279.00;4977448;28;20200;-69
2021/05/13 01:13:00;;;;;;;16.35;6.53;;;12.90;99.90;;;13.43;94.97;100274.13;4974383;28;20250;-70
2021/05/13 01:15:29;;;;;;;16.95;6.03;;;12.80;99.90;;;13.34;95.23;100266.72;4975314;28;20246;-69
2021/05/13 01:18:01;;;;;;;16.40;6.22;;;12.70;99.90;;;13.29;95.64;100261.75;4975976;28;20715;-70
2021/05/13 01:20:31;;;;;;;15.45;6.30;;;12.70;99.90;;;13.27;96.21;100252.22;4992919;28;20246;-69
2021/05/13 01:23:00;;;;;;;12.48;5.43;;;12.70;99.90;;;13.21;96.33;100242.06;4993100;28;20215;-70
2021/05/13 01:25:29;;;;;;;15.48;5.57;;;12.70;99.90;;;13.18;96.37;100247.50;4979797;28;20192;-70
2021/05/13 01:28:00;;;;;;;16.83;6.20;;;12.60;99.90;;;13.15;96.83;100245.88;4978927;28;20214;-70
2021/05/13 01:30:27;;;;;;;13.73;5.80;;;12.60;99.90;;;13.13;97.01;100242.50;4981433;28;20191;-70
2021/05/13 01:32:55;;;;;;;16.60;6.15;;;12.60;99.90;;;13.12;97.10;100245.22;4983773;28;20297;-69
2021/05/13 01:35:21;;;;;;;16.80;5.65;;;12.60;99.90;;;13.05;97.13;100238.59;4976997;28;20195;-70
2021/05/13 01:37:48;;;;;;;15.57;6.40;;;12.50;99.90;;;13.01;97.61;100230.03;4977267;28;20683;-70
2021/05/13 01:40:18;;;;;;;15.82;5.65;;;12.50;99.90;;;12.98;97.76;100209.16;4977415;28;20277;-68
2021/05/13 01:42:44;;;;;;;20.17;6.68;;;12.50;99.90;;;12.93;97.66;100216.44;4979305;28;20211;-71
2021/05/13 01:45:13;;;;;;;16.95;6.35;;;12.40;99.90;;;12.95;97.98;100211.09;4980256;28;20492;-70
2021/05/13 01:47:39;;;;;;;18.92;6.35;;;12.40;99.90;;;12.93;98.17;100205.94;4976558;28;20444;-70
2021/05/13 01:50:06;;;;;;;16.73;6.20;;;12.40;99.90;;;12.91;98.05;100205.16;4977145;28;20203;-69
2021/05/13 01:52:33;;;;;;;16.27;5.57;;;12.40;99.90;;;12.89;98.18;100211.47;4979405;28;20266;-69
2021/05/13 01:54:59;;;;;;;14.65;5.90;;;12.30;99.90;;;12.87;98.42;100202.81;4977895;28;20258;-70
2021/05/13 01:57:26;;;;;;;14.40;5.45;;;12.30;99.90;;;12.85;98.53;100197.66;4981090;28;20246;-69
2021/05/13 01:59:53;;;;;;;14.93;5.60;;;12.30;99.90;;;12.82;98.56;100194.34;4977127;28;20212;-70
2021/05/13 02:02:21;;;;;;;15.68;6.30;;;12.30;99.90;;;12.80;98.68;100198.81;4979321;28;20207;-69
2021/05/13 02:04:47;;;;;;;14.35;5.28;;;12.20;99.90;;;12.74;98.71;100186.91;4979291;28;20555;-69
2021/05/13 02:07:14;;;;;;;15.45;5.80;;;12.20;99.90;;;12.71;98.72;100179.16;4977044;28;20199;-69
2021/05/13 02:09:42;;;;;;;14.43;5.43;;;12.20;99.90;;;12.62;98.75;100174.44;4978558;28;20199;-69
2021/05/13 02:12:09;;;;;;;14.43;5.18;;;12.10;99.90;;;12.57;98.98;100172.03;4982019;28;20206;-68
2021/05/13 02:14:36;;;;;;;15.48;5.00;;;12.00;99.90;;;12.55;98.89;100171.31;4979692;28;20213;-70
2021/05/13 02:17:02;;;;;;;13.05;5.00;;;12.00;99.90;;;12.54;98.78;100166.13;4979689;28;20199;-70
2021/05/13 02:19:28;;;;;;;16.13;5.25;;;12.00;99.90;;;12.52;99.01;100163.56;4991865;28;20220;-70
2021/05/13 02:21:55;;;;;;;22.40;6.05;;;11.90;99.90;;;12.53;98.74;100164.44;4978422;28;20235;-69
2021/05/13 02:24:21;;;;;;;15.77;6.30;;;11.90;99.90;;;12.50;98.80;100162.84;4976768;28;20203;-70
2021/05/13 02:26:47;;;;;;;22.02;6.10;;;11.90;99.90;;;12.48;98.78;100151.56;4977453;28;20195;-70
2021/05/13 02:29:13;;;;;;;13.63;5.80;;;11.90;99.90;;;12.48;98.84;100145.47;4978115;28;20194;-67
2021/05/13 02:31:40;;;;;;;16.40;5.68;;;11.90;99.90;;;12.46;98.75;100140.28;4978201;28;20215;-69
2021/05/13 02:34:07;;;;;;;16.55;6.22;;;11.80;99.90;;;12.45;98.79;100136.00;4977617;28;20223;-69
2021/05/13 02:36:33;;;;;;;15.02;6.05;;;11.80;99.90;;;12.46;98.92;100136.81;4980879;28;20196;-71
2021/05/13 02:39:00;;;;;;;15.80;6.03;;;11.80;99.90;;;12.47;99.09;100123.59;4981204;28;20606;-69
2021/05/13 02:41:27;;;;;;;14.13;6.10;;;11.80;99.90;;;12.48;98.91;100125.31;4979158;28;20188;-70
2021/05/13 02:43:53;;;;;;;15.80;6.57;;;11.80;99.90;;;12.51;98.75;100127.78;4978102;28;20225;-70
2021/05/13 02:46:20;;;;;;;17.55;6.40;;;11.90;99.90;;;12.49;98.82;100132.25;4980975;28;20241;-69
2021/05/13 02:48:47;;;;;;;15.93;6.15;;;11.90;99.90;;;12.46;98.57;100142.91;4980460;28;20663;-68
2021/05/13 02:51:13;;;;;;;21.00;6.32;;;11.80;99.90;;;12.46;98.70;100142.06;4976934;28;20203;-70
2021/05/13 02:53:39;;;;;;;17.00;6.50;;;11.80;99.90;;;12.47;98.56;100151.66;4977932;28;20211;-70
2021/05/13 02:56:06;;;;;;;17.92;6.53;;;11.80;99.90;;;12.48;98.43;100146.31;4979006;28;20234;-70
2021/05/13 02:58:32;;;;;;;13.63;5.78;;;11.80;99.90;;;12.53;98.52;100149.53;4994901;28;20272;-70
2021/05/13 03:01:08;;;;;;;14.55;6.40;;;11.70;99.90;;;12.58;98.42;100152.75;4993606;28;20214;-70
2021/05/13 03:03:34;;;;;;;19.30;6.60;;;11.80;99.90;;;12.63;98.51;100152.50;4978030;28;20291;-69
2021/05/13 03:06:01;;;;;;;15.68;6.95;;;11.80;99.90;;;12.63;98.20;100155.97;4985774;28;20203;-70
2021/05/13 03:08:28;;;;;;;15.57;6.57;;;11.80;99.90;;;12.62;98.03;100149.00;4982799;28;20188;-69
2021/05/13 03:10:54;;;;;;;19.08;6.13;;;11.80;99.90;;;12.62;97.92;100150.81;4976469;28;20270;-70
2021/05/13 03:13:22;;;;;;;15.23;6.72;;;11.80;99.90;;;12.62;98.07;100143.75;4979029;28;20220;-70
2021/05/13 03:15:49;;;;;;;17.30;5.97;;;11.80;99.90;;;12.65;97.99;100148.00;4978799;28;20199;-70
2021/05/13 03:18:16;;;;;;;17.90;6.55;;;11.80;99.90;;;12.63;97.63;100149.88;4970141;28;20199;-70
2021/05/13 03:20:47;;;;;;;18.25;6.47;;;11.80;99.90;;;12.63;97.59;100155.97;4976294;28;20226;-70
2021/05/13 03:23:15;;;;;;;14.98;6.15;;;11.90;99.90;;;12.66;97.60;100154.13;4975192;28;20223;-70
2021/05/13 03:25:42;;;;;;;17.00;5.80;;;11.90;99.90;;;12.66;97.68;100152.31;4974794;28;20200;-70
2021/05/13 03:28:09;;;;;;;19.15;5.70;;;11.90;99.90;;;12.67;97.49;100143.53;4996481;28;20219;-70
2021/05/13 03:30:42;;;;;;;17.65;5.93;;;11.90;99.90;;;12.69;97.65;100139.03;4977860;28;20204;-70
2021/05/13 03:33:09;;;;;;;16.90;5.85;;;11.90;99.90;;;12.71;97.49;100141.59;4977570;28;20230;-69
2021/05/13 03:35:36;;;;;;;15.88;6.03;;;12.00;99.90;;;12.73;97.51;100147.56;4978407;28;20263;-70
2021/05/13 03:38:07;;;;;;;16.58;6.07;;;12.00;99.90;;;12.76;97.60;100139.53;4975879;28;20254;-69
2021/05/13 03:40:35;;;;;;;13.40;6.50;;;12.00;99.90;;;12.78;97.33;100140.28;4992026;28;20207;-70
2021/05/13 03:43:03;;;;;;;17.60;6.47;;;12.00;99.90;;;12.77;97.78;100136.84;4993197;28;20227;-69
2021/05/13 03:45:30;;;;;;;16.35;5.78;;;12.00;99.90;;;12.79;97.44;100134.13;4983452;28;20199;-69
2021/05/13 03:47:56;;;;;;;18.73;6.50;;;12.10;99.90;;;12.79;97.48;100139.38;4979378;28;20230;-70
2021/05/13 03:50:23;;;;;;;18.95;5.60;;;12.10;99.90;;;12.78;97.23;100135.03;4977649;28;20199;-69
2021/05/13 03:52:49;;;;;;;17.63;5.70;;;12.10;99.90;;;12.77;97.29;100125.47;4975476;28;20234;-70
2021/05/13 03:55:16;;;;;;;20.50;6.00;;;12.10;99.90;;;12.78;97.32;100127.16;4978623;28;20199;-71
2021/05/13 03:57:43;;;;;;;13.43;5.22;;;12.10;99.90;;;12.81;97.27;100119.13;4978076;28;20190;-70
2021/05/13 04:00:12;;;;;;;13.75;5.60;;;12.10;99.90;;;12.80;97.25;100125.28;4979880;28;20294;-69
2021/05/13 04:02:40;;;;;;;17.70;6.43;;;12.10;99.90;;;12.76;96.89;100113.28;4978450;28;20234;-70
2021/05/13 04:05:07;;;;;;;14.07;6.00;;;12.10;99.90;;;12.76;97.02;100114.13;4979679;28;20202;-69
2021/05/13 04:07:37;;;;;;;16.52;6.07;;;12.10;99.90;;;12.78;96.78;100112.25;4981414;28;20262;-70
2021/05/13 04:10:07;;;;;;;12.35;5.22;;;12.10;99.90;;;12.78;96.79;100117.50;4981937;28;20187;-70
2021/05/13 04:12:37;;;;;;;14.52;6.10;;;12.10;99.90;;;12.74;96.83;100115.16;4979071;28;20226;-70
2021/05/13 04:15:07;;;;;;;14.85;5.80;;;12.10;99.90;;;12.73;96.90;100119.53;4978075;28;20653;-66
2021/05/13 04:17:34;;;;;;;19.45;6.60;;;12.10;99.90;;;12.75;96.92;100116.84;4988133;28;20761;-69
2021/05/13 04:20:00;;;;;;;14.73;5.72;;;12.10;99.90;;;12.76;96.78;100118.53;4985257;28;20218;-69
2021/05/13 04:22:26;;;;;;;13.70;5.70;;;12.20;99.90;;;12.77;96.92;100114.97;4976989;28;20219;-72
2021/05/13 04:24:53;;;;;;;14.90;6.43;;;12.20;99.90;;;12.80;96.65;100114.78;4977547;28;20191;-70
2021/05/13 04:27:19;;;;;;;16.52;6.43;;;12.20;99.90;;;12.87;96.75;100110.91;4981563;28;20195;-71
2021/05/13 04:29:45;;;;;;;16.15;5.88;;;12.30;99.90;;;12.94;96.48;100107.00;4980650;28;20192;-70
2021/05/13 04:32:12;;;;;;;14.82;5.45;;;12.30;99.90;;;12.92;96.45;100109.72;4990286;28;20188;-70
2021/05/13 04:34:38;;;;;;;16.20;5.88;;;12.30;99.90;;;12.93;96.26;100121.06;4998972;28;20186;-71
2021/05/13 04:37:05;;;;;;;15.27;5.60;;;12.30;99.90;;;12.90;96.14;100115.97;4980575;28;20199;-70
2021/05/13 04:39:31;;;;;;;14.10;5.78;;;12.30;99.90;;;12.90;96.13;100115.97;4979678;28;20216;-70
2021/05/13 04:41:58;;;;;;;15.07;5.70;;;12.30;99.90;;;12.89;96.07;100119.53;4979390;28;20263;-69
2021/05/13 04:44:24;;;;;;;15.48;5.88;;;12.30;99.90;;;12.91;95.92;100115.06;4978865;28;20758;-70
2021/05/13 04:46:58;;;;;;;14.05;6.00;;;12.30;99.90;;;12.90;95.89;100118.59;4993568;28;20692;-70
2021/05/13 04:49:26;;;;;;;15.95;6.30;;;12.30;99.90;;;12.90;95.79;100122.06;4978223;28;20234;-70
2021/05/13 04:51:53;;;;;;;13.98;5.82;;;12.30;99.90;;;12.95;95.62;100114.78;4975290;28;20195;-70
2021/05/13 04:54:20;;;;;;;17.58;5.82;;;12.30;99.90;;;12.97;95.53;100109.44;4977338;28;20223;-70
2021/05/13 04:56:47;;;;;;;15.77;6.45;;;12.30;99.90;;;12.97;95.37;100109.44;4976326;28;20202;-70
2021/05/13 04:59:13;;;;;;;15.85;5.80;;;12.40;99.90;;;13.03;95.29;100109.97;4978552;28;20198;-70
2021/05/13 05:01:39;;;;;;;12.38;5.75;;;12.40;99.90;;;13.03;95.03;100107.34;4977148;28;20196;-70
2021/05/13 05:04:06;;;;;;;14.50;5.85;;;12.40;99.90;;;13.03;94.90;100104.72;4991933;28;20244;-70
2021/05/13 05:06:33;;;;;;;14.15;5.75;;;12.40;99.90;;;13.03;94.95;100107.34;4985890;28;20187;-70
2021/05/13 05:09:00;;;;;;;15.05;5.55;;;12.40;99.90;;;13.05;94.75;100105.47;4993030;28;20223;-71
2021/05/13 05:11:26;;;;;;;14.52;5.60;;;12.40;99.90;;;13.03;94.50;100104.72;4978315;28;20199;-71
2021/05/13 05:13:53;;;;;;;15.73;5.30;;;12.40;99.90;;;13.02;94.46;100104.81;4976561;28;20223;-70
2021/05/13 05:16:19;;;;;;;17.48;5.35;;;12.40;99.90;;;13.06;94.75;100098.44;4978875;28;20205;-69
2021/05/13 05:18:45;;;;;;;14.38;5.40;;;12.40;99.90;;;13.10;94.48;100106.06;4977338;28;20195;-70
2021/05/13 05:21:11;;;;;;;13.23;5.30;;;12.40;99.90;;;13.11;94.26;100096.41;4978190;28;20323;-69
2021/05/13 05:23:39;;;;;;;13.45;5.28;;;12.40;99.90;;;13.10;94.35;100097.31;4976280;28;20584;-70
2021/05/13 05:26:06;;;;;;;13.73;5.10;;;12.40;99.90;;;13.09;94.09;100098.25;4978609;28;20198;-70
2021/05/13 05:28:33;;;;;;;11.20;5.00;;;12.40;99.90;;;13.11;94.20;100094.59;4979122;28;20191;-70
2021/05/13 05:30:59;;;;;;;13.25;4.88;;;12.50;99.90;;;13.14;94.00;100099.69;4975989;28;20210;-70
2021/05/13 05:33:25;;;;;;;18.55;7.40;;;12.50;99.90;;;13.17;94.12;100101.28;4992702;28;20223;-69
2021/05/13 05:35:52;;;;;;;30.55;12.98;;;12.50;99.90;;;13.18;93.84;100101.19;4976914;28;20199;-70
2021/05/13 05:38:20;;;;;;;16.48;6.47;;;12.50;99.90;;;13.20;93.73;100098.47;4976779;28;20202;-70
2021/05/13 05:40:47;;;;;;;12.93;5.55;;;12.60;99.90;;;13.19;93.66;100105.53;4977409;28;20211;-69
2021/05/13 05:43:14;;;;;;;14.68;5.13;;;12.60;99.90;;;13.18;93.49;100092.50;4978453;28;20203;-70
2021/05/13 05:45:41;;;;;;;17.17;5.80;;;12.60;99.90;;;13.20;93.63;100088.81;4976659;28;20286;-70
2021/05/13 05:48:08;;;;;;;13.43;5.15;;;12.60;99.90;;;13.24;93.55;100092.13;4976105;28;20222;-69
2021/05/13 05:50:39;;;;;;;13.68;5.05;;;12.60;99.90;;;13.27;93.57;100084.91;4978992;28;20195;-71
2021/05/13 05:53:07;;;;;;;17.02;5.97;;;12.70;99.90;;;13.32;93.60;100082.00;4984760;28;20218;-70
2021/05/13 05:55:35;;;;;;;16.58;7.47;;;12.70;99.90;;;13.34;93.42;100088.88;4979516;28;20198;-71
2021/05/13 05:58:05;;;;;;;12.63;5.35;;;12.70;99.90;;;13.32;93.28;100080.22;4981556;28;20253;-72
2021/05/13 06:00:31;;;;;;;12.13;5.35;;;12.60;99.90;;;13.29;93.22;100077.78;4977676;28;20204;-70
2021/05/13 06:02:58;;;;;;;13.90;5.75;;;12.60;99.90;;;13.27;93.41;100073.53;4981106;28;20223;-70
2021/05/13 06:05:25;;;;;;;12.95;5.10;;;12.60;99.90;;;13.25;93.70;100064.88;4977401;28;20194;-70
2021/05/13 06:07:52;;;;;;;14.40;5.25;;;12.60;99.90;;;13.24;93.37;100060.59;4975716;28;20286;-69
2021/05/13 06:10:18;;;;;;;13.63;5.28;;;12.60;99.90;;;13.23;93.49;100056.28;4977831;28;20203;-68
2021/05/13 06:12:45;;;;;;;12.98;4.82;;;12.60;99.90;;;13.23;93.73;100046.59;4976912;28;20215;-70
2021/05/13 06:15:17;;;;;;;13.85;5.13;;;12.70;99.90;;;13.18;93.71;100017.13;4979513;28;20625;-70
2021/05/13 06:17:44;;;;;;;13.75;5.18;;;12.60;99.90;;;13.12;93.61;100024.53;4998389;28;20568;-70
2021/05/13 06:20:19;;;;;;;14.20;6.20;;;12.60;99.90;;;13.06;93.84;100059.88;4979078;28;20243;-70
2021/05/13 06:22:46;;;;;;;13.50;5.80;;;12.50;99.90;;;13.00;94.25;100061.97;4979558;28;20215;-70
2021/05/13 06:25:13;;;;;;;13.85;5.90;;;12.50;99.90;;;12.93;94.67;100055.41;4996240;28;20199;-70
2021/05/13 06:27:40;;;;;;;14.98;5.72;;;12.40;99.90;;;12.90;94.96;100052.94;4979525;28;20196;-70
2021/05/13 06:30:08;;;;;;;14.18;6.35;;;12.40;99.90;;;12.84;95.26;100058.56;4978497;28;20200;-72
2021/05/13 06:32:35;;;;;;;12.10;5.30;;;12.40;99.90;;;12.81;95.51;100070.06;4975195;28;20211;-70
2021/05/13 06:35:01;;;;;;;13.55;5.93;;;12.40;99.90;;;12.82;95.71;100063.91;4978029;28;20196;-70
2021/05/13 06:37:28;;;;;;;14.60;6.20;;;12.40;99.90;;;12.82;96.19;100063.91;4976889;28;20216;-71
2021/05/13 06:39:54;;;;;;;17.42;6.22;;;12.40;99.90;;;12.82;96.23;100053.41;4975406;28;20238;-71
2021/05/13 06:42:20;;;;;;;12.68;5.22;;;12.40;99.90;;;12.80;96.48;100064.91;4980638;28;20582;-70
2021/05/13 06:44:46;;;;;;;13.27;5.78;;;12.40;99.90;;;12.79;96.64;100060.59;4978528;28;20199;-72
2021/05/13 06:47:13;;;;;;;13.40;5.90;;;12.40;99.90;;;12.82;96.82;100060.41;4974235;28;20207;-70
2021/05/13 06:49:40;;;;;;;13.88;5.30;;;12.40;99.90;;;12.86;97.25;100061.94;4978413;28;20208;-70
2021/05/13 06:52:07;;;;;;;11.77;4.95;;;12.40;99.90;;;12.85;96.92;100052.34;4984532;28;20192;-69
2021/05/13 06:54:34;;;;;;;13.35;5.38;;;12.40;99.90;;;12.88;96.94;100052.22;4981136;28;20202;-70
2021/05/13 06:57:01;;;;;;;12.60;4.80;;;12.40;99.90;;;12.87;96.77;100048.72;4978559;28;20195;-70
2021/05/13 06:59:28;;;;;;;13.20;5.20;;;12.40;99.90;;;12.86;96.73;100049.63;4988668;28;20191;-70
2021/05/13 07:01:55;;;;;;;11.88;4.85;;;12.40;99.90;;;12.87;97.14;100051.34;4979691;28;20641;-70
2021/05/13 07:04:21;;;;;;;11.02;4.80;;;12.40;99.90;;;12.89;96.82;100053.88;4994306;28;20571;-70
2021/05/13 07:06:49;;;;;;;12.07;4.93;;;12.40;99.90;;;12.85;96.74;100047.97;4964594;28;20203;-70
2021/05/13 07:09:16;;;;;;;10.50;4.22;;;12.30;99.90;;;12.83;96.75;100047.19;4973041;28;20191;-67
2021/05/13 07:11:43;;;;;;;12.00;4.40;;;12.30;99.90;;;12.84;96.78;100042.81;4979096;28;20188;-68
2021/05/13 07:14:09;;;;;;;11.98;4.93;;;12.30;99.90;;;12.83;96.85;100051.59;4979152;28;20279;-70
2021/05/13 07:16:36;;;;;;;12.30;4.97;;;12.30;99.90;;;12.83;96.67;100055.06;4977792;28;20191;-65
2021/05/13 07:19:03;;;;;;;10.20;4.32;;;12.30;99.90;;;12.82;96.89;100055.16;4978538;28;20191;-70
2021/05/13 07:21:31;;;;;;;12.55;5.22;;;12.30;99.90;;;12.83;96.76;100055.06;4981121;28;20296;-70
2021/05/13 07:23:58;;;;;;;12.30;5.00;;;12.30;99.90;;;12.83;96.80;100049.81;4977002;28;20750;-72
2021/05/13 07:26:25;;;;;;;12.75;4.90;;;12.30;99.90;;;12.81;97.02;100048.25;4979367;28;20195;-70
2021/05/13 07:28:51;;;;;;;10.63;4.85;;;12.30;99.90;;;12.81;96.95;100049.06;4994579;28;20211;-69
2021/05/13 07:31:18;;;;;;;12.93;5.47;;;12.30;99.90;;;12.84;97.08;100045.44;4982257;28;20553;-70
2021/05/13 07:33:44;;;;;;;11.75;5.38;;;12.30;99.90;;;12.85;96.99;100037.47;4980573;28;20627;-70
2021/05/13 07:36:10;;;;;;;14.73;5.95;;;12.30;99.90;;;12.90;96.76;100039.81;4996636;28;20210;-69
2021/05/13 07:38:37;;;;;;;11.98;5.20;;;12.40;99.90;;;12.90;96.84;100042.44;4980521;28;20192;-70
2021/05/13 07:41:06;;;;;;;12.30;5.38;;;12.40;99.90;;;12.92;96.72;100041.44;4982177;28;20207;-71
2021/05/13 07:43:34;;;;;;;13.20;5.22;;;12.40;99.90;;;12.91;96.81;100044.16;4994838;28;20249;-71
2021/05/13 07:46:00;;;;;;;12.90;5.03;;;12.40;99.90;;;12.88;96.76;100045.16;4982448;28;20294;-69
2021/05/13 07:48:28;;;;;;;12.23;5.18;;;12.40;99.90;;;12.87;96.62;100043.47;4996153;28;20196;-70
2021/05/13 07:50:55;;;;;;;12.10;5.10;;;12.40;99.90;;;12.87;96.75;100040.00;4982756;28;20199;-70
2021/05/13 07:53:22;;;;;;;13.82;5.85;;;12.40;99.90;;;12.86;96.92;100035.69;4995365;28;20222;-72
2021/05/13 07:55:48;;;;;;;13.27;4.88;;;12.30;99.90;;;12.87;96.71;100038.22;4982360;28;20187;-68
2021/05/13 07:58:15;;;;;;;12.55;5.35;;;12.30;99.90;;;12.89;97.04;100033.72;4975611;28;20195;-69
2021/05/13 08:00:42;;;;;;;12.80;5.30;;;12.30;99.90;;;12.90;96.78;100042.44;4981010;28;20227;-70
2021/05/13 08:03:08;;;;;;;11.60;5.35;;;12.30;99.90;;;12.91;96.85;100044.97;4986912;28;20579;-68
2021/05/13 08:05:35;;;;;;;15.43;6.10;;;12.40;99.90;;;12.93;96.62;100047.53;4983521;28;20191;-69
2021/05/13 08:08:01;;;;;;;12.20;5.57;;;12.40;99.90;;;12.93;96.65;100058.03;4976886;28;20206;-69
2021/05/13 08:10:28;;;;;;;11.70;5.28;;;12.40;99.90;;;12.91;96.51;100049.41;4980096;28;20196;-71
2021/05/13 08:12:55;;;;;;;13.43;5.35;;;12.40;99.90;;;12.91;96.65;100052.84;4979893;28;20223;-69
2021/05/13 08:15:22;;;;;;;14.82;5.82;;;12.40;99.90;;;12.88;96.48;100053.03;4980646;28;20188;-68
2021/05/13 08:17:48;;;;;;;14.90;5.40;;;12.40;99.90;;;12.88;96.60;100039.06;4991863;28;20219;-69
2021/05/13 08:20:17;;;;;;;12.40;5.68;;;12.40;99.90;;;12.91;96.55;100033.63;4995415;28;20211;-67
2021/05/13 08:22:45;;;;;;;13.13;5.50;;;12.40;99.90;;;12.90;96.25;100040.66;4979358;28;20243;-69
2021/05/13 08:25:15;;;;;;;13.57;5.65;;;12.40;99.90;;;12.87;96.28;100050.50;4980313;28;20278;-70
2021/05/13 08:27:41;;;;;;;11.57;5.47;;;12.40;99.90;;;12.85;96.29;100055.84;4976778;28;20259;-70
2021/05/13 08:30:09;;;;;;;14.55;5.60;;;12.40;99.90;;;12.90;96.62;100058.19;4985356;28;20203;-72
2021/05/13 08:32:36;;;;;;;12.50;5.20;;;12.40;99.90;;;12.91;96.35;100060.72;4972417;28;20864;-71
2021/05/13 08:35:03;;;;;;;13.68;5.25;;;12.40;99.90;;;12.89;96.07;100056.50;4976895;28;20191;-69
2021/05/13 08:37:30;;;;;;;13.00;5.00;;;12.40;99.90;;;12.87;96.26;100047.88;4981823;28;20308;-72
2021/05/13 08:39:57;;;;;;;13.50;5.60;;;12.40;99.90;;;12.86;96.10;100047.00;4982318;28;20227;-71
2021/05/13 08:42:23;;;;;;;10.77;4.70;;;12.40;99.90;;;12.86;96.21;100047.00;4988775;28;20239;-73
2021/05/13 08:44:49;;;;;;;13.25;5.85;;;12.30;99.90;;;12.87;96.17;100043.47;4975053;28;20199;-70
2021/05/13 08:47:16;;;;;;;14.80;5.65;;;12.40;99.90;;;12.89;95.99;100040.75;4973134;28;20199;-73
2021/05/13 08:49:44;;;;;;;13.13;5.20;;;12.40;99.90;;;12.89;96.23;100040.75;4973355;28;20188;-73
2021/05/13 08:52:13;;;;;;;13.82;5.60;;;12.30;99.90;;;12.83;96.05;100035.84;4971777;28;20584;-71
2021/05/13 08:54:51;;;;;;;13.25;4.93;;;12.30;99.90;;;12.82;96.06;100039.41;4973775;28;20203;-74
2021/05/13 08:57:17;;;;;;;15.05;5.55;;;12.30;99.90;;;12.82;95.98;100018.41;4984901;28;20677;-73
2021/05/13 08:59:44;;;;;;;14.48;5.47;;;12.30;99.90;;;12.85;96.48;100015.59;4974235;28;20206;-71
2021/05/13 09:02:11;;;;;;;14.55;5.95;;;12.30;99.90;;;12.85;96.30;100012.97;4965653;28;20656;-71
2021/05/13 09:04:41;;;;;;;13.35;4.90;;;12.30;99.90;;;12.83;96.28;99999.94;4971734;28;20199;-70
2021/05/13 09:07:15;;;;;;;14.57;5.60;;;12.30;99.90;;;12.80;96.73;100007.13;4969834;28;20341;-70
2021/05/13 09:09:56;;;;;;;13.70;6.00;;;12.40;99.90;;;12.82;97.11;100013.16;4972756;28;20567;-70
2021/05/13 09:12:25;;;;;;;12.93;5.00;;;12.40;99.90;;;12.80;97.39;100015.00;4968843;28;20734;-70
2021/05/13 09:15:07;;;;;;;11.60;5.15;;;12.40;99.90;;;12.75;97.69;100015.28;4974582;28;20218;-70
2021/05/13 09:17:35;;;;;;;11.30;5.03;;;12.40;99.90;;;12.70;98.06;100040.09;4970245;28;20206;-72
2021/05/13 09:20:03;;;;;;;12.05;4.78;;;12.30;99.90;;;12.63;98.20;100042.25;4969471;28;20219;-72
2021/05/13 09:22:31;;;;;;;11.40;4.57;;;12.30;99.90;;;12.59;98.57;100044.19;4973703;28;20590;-72
2021/05/13 09:24:59;;;;;;;14.05;4.60;;;12.20;99.90;;;12.59;99.15;100046.81;4980339;28;20663;-75
2021/05/13 09:27:30;;;;;;;12.55;5.07;;;12.20;99.90;;;12.59;99.26;100031.06;4973713;28;20201;-75
2021/05/13 09:30:14;;;;;;;11.75;5.55;;;12.10;99.90;;;12.57;99.27;100030.31;4979973;28;20234;-74
2021/05/13 09:32:43;;;;;;;13.23;5.15;;;12.10;99.90;;;12.59;99.58;100030.25;4972821;28;20219;-73
2021/05/13 09:35:15;;;;;;;12.85;4.88;;;12.10;99.90;;;12.60;99.70;100037.16;4996609;28;20203;-74
2021/05/13 09:37:45;;;;;;;17.05;5.93;;;12.10;99.90;;;12.57;99.78;100009.31;4975881;28;20203;-74
2021/05/13 09:40:19;;;;;;;10.40;4.38;;;12.10;99.90;;;12.48;99.74;100009.84;4973877;28;20203;-76
2021/05/13 09:42:46;;;;;;;11.85;4.47;;;12.00;99.90;;;12.39;100.00;100002.47;4970307;28;20211;-76
2021/05/13 09:45:13;;;;;;;10.93;4.22;;;12.00;99.90;;;12.34;100.00;99995.81;4973256;28;20207;-77
2021/05/13 09:47:40;;;;;;;11.80;4.40;;;11.90;99.90;;;12.28;100.00;99981.25;4975421;28;20238;-76
2021/05/13 09:50:11;;;;;;;12.80;4.03;;;11.90;99.90;;;12.25;100.00;99991.94;4972134;28;20295;-76
2021/05/13 09:52:56;;;;;;;11.02;4.00;;;11.90;99.90;;;12.28;100.00;100006.66;4969703;28;20301;-77
2021/05/13 09:55:31;;;;;;;10.32;3.97;;;11.90;99.90;;;12.32;100.00;99998.50;4979592;28;20297;-80
2021/05/13 09:58:06;;;;;;;10.93;4.30;;;11.90;99.90;;;12.36;100.00;99997.41;4994526;28;20286;-77
2021/05/13 10:00:45;;;;;;;9.75;3.80;;;12.00;99.90;;;12.35;100.00;99987.00;4995074;28;20576;-79
2021/05/13 10:03:15;;;;;;;12.35;4.15;;;11.90;99.90;;;12.30;100.00;100000.41;4980003;28;20226;-77
2021/05/13 10:05:47;;;;;;;11.68;3.83;;;12.00;99.90;;;12.31;100.00;100001.22;4983045;28;20270;-76
2021/05/13 10:08:16;;;;;;;10.32;3.60;;;11.90;99.90;;;12.30;100.00;99995.16;4991107;28;20191;-75